createdAt,value
2023-09-23T00:00:25.090Z,73340.94
2023-09-23T00:02:51.791Z,73367.78
2023-09-23T00:05:18.865Z,73425.66
2023-09-23T00:07:46.125Z,73444.25
2023-09-23T00:10:13.009Z,73481.44
2023-09-23T00:12:44.318Z,73502.09
2023-09-23T00:15:14.254Z,73516.56
2023-09-23T00:17:42.398Z,73551.72
2023-09-23T00:20:15.928Z,73555.84
2023-09-23T00:22:49.156Z,73580.63
2023-09-23T00:25:20.256Z,73588.91
2023-09-23T00:27:47.242Z,73601.31
2023-09-23T00:30:14.680Z,73605.44
2023-09-23T00:32:43.293Z,73648.84
2023-09-23T00:35:13.347Z,73642.63
2023-09-23T00:37:45.059Z,73652.97
2023-09-23T00:40:19.213Z,73659.16
2023-09-23T00:42:49.302Z,73683.97
2023-09-23T00:45:17.807Z,73717.03
2023-09-23T00:47:47.013Z,73733.56
2023-09-23T00:50:20.364Z,73764.56
2023-09-23T00:52:52.573Z,73781.09
2023-09-23T00:55:25.590Z,73824.50
2023-09-23T00:58:00.854Z,73826.56
2023-09-23T01:00:30.529Z,73843.09
2023-09-23T01:02:57.756Z,73851.38
2023-09-23T01:05:28.770Z,73865.84
2023-09-23T01:08:05.956Z,73865.84
2023-09-23T01:10:33.125Z,73890.63
2023-09-23T01:13:01.050Z,73884.44
2023-09-23T01:15:30.031Z,73884.44
2023-09-23T01:17:58.269Z,73898.91
2023-09-23T01:20:26.942Z,73905.09
2023-09-23T01:22:59.216Z,73915.44
2023-09-23T01:25:26.795Z,73919.56
2023-09-23T01:27:53.980Z,73925.78
2023-09-23T01:30:22.911Z,73936.09
2023-09-23T01:32:51.784Z,73936.09
2023-09-23T01:35:19.395Z,73938.19
2023-09-23T01:37:46.870Z,73938.19
2023-09-23T01:40:20.362Z,73960.91
2023-09-23T01:42:50.622Z,73965.03
2023-09-23T01:45:20.616Z,73973.31
2023-09-23T01:47:47.947Z,73989.84
2023-09-23T01:50:15.113Z,73991.91
2023-09-23T01:52:42.281Z,73998.13
2023-09-23T01:55:11.958Z,73996.03
2023-09-23T01:57:39.345Z,73993.97
2023-09-23T02:00:16.313Z,74022.91
2023-09-23T02:02:43.473Z,74020.84
2023-09-23T02:05:10.335Z,74018.78
2023-09-23T02:07:37.145Z,74024.97
2023-09-23T02:10:03.869Z,74033.25
2023-09-23T02:12:30.587Z,74043.59
2023-09-23T02:14:57.536Z,74060.13
2023-09-23T02:17:24.341Z,74045.66
2023-09-23T02:19:53.408Z,74072.50
2023-09-23T02:22:20.418Z,74068.38
2023-09-23T02:24:47.948Z,74076.66
2023-09-23T02:27:15.363Z,74068.38
2023-09-23T02:29:42.350Z,74072.50
2023-09-23T02:32:09.205Z,74070.44
2023-09-23T02:34:37.910Z,74074.59
2023-09-23T02:37:05.830Z,74074.59
2023-09-23T02:39:32.803Z,74066.31
2023-09-23T02:42:01.193Z,74078.72
2023-09-23T02:44:31.236Z,74084.91
2023-09-23T02:46:58.183Z,74093.19
2023-09-23T02:49:25.018Z,74086.97
2023-09-23T02:51:52.098Z,74089.06
2023-09-23T02:54:18.839Z,74111.78
2023-09-23T02:56:49.203Z,74122.13
2023-09-23T02:59:17.132Z,74107.66
2023-09-23T03:01:52.830Z,74103.53
2023-09-23T03:04:24.825Z,74109.72
2023-09-23T03:07:00.987Z,74107.66
2023-09-23T03:09:33.419Z,74097.31
2023-09-23T03:12:02.267Z,74101.44
2023-09-23T03:14:44.504Z,74095.25
2023-09-23T03:17:14.069Z,74101.44
2023-09-23T03:19:40.869Z,74105.59
2023-09-23T03:22:09.202Z,74109.72
2023-09-23T03:24:36.273Z,74130.38
2023-09-23T03:27:03.107Z,74118.00
2023-09-23T03:29:29.827Z,74111.78
2023-09-23T03:31:57.485Z,74122.13
2023-09-23T03:34:24.780Z,74136.59
2023-09-23T03:36:55.035Z,74138.66
2023-09-23T03:39:23.223Z,74138.66
2023-09-23T03:41:50.006Z,74153.13
2023-09-23T03:44:17.354Z,74151.06
2023-09-23T03:46:46.811Z,74163.47
2023-09-23T03:49:14.085Z,74157.25
2023-09-23T03:51:41.431Z,74151.06
2023-09-23T03:54:08.230Z,74155.19
2023-09-23T03:56:35.708Z,74159.31
2023-09-23T03:59:06.931Z,74157.25
2023-09-23T04:01:39.882Z,74155.19
2023-09-23T04:04:08.532Z,74159.31
2023-09-23T04:06:35.368Z,74155.19
2023-09-23T04:09:02.015Z,74134.53
2023-09-23T04:11:29.082Z,74140.72
2023-09-23T04:13:56.330Z,74130.38
2023-09-23T04:16:23.832Z,74140.72
2023-09-23T04:18:53.125Z,74153.13
2023-09-23T04:21:23.845Z,74159.31
2023-09-23T04:23:50.558Z,74155.19
2023-09-23T04:26:17.480Z,74173.78
2023-09-23T04:28:45.590Z,74153.13
2023-09-23T04:31:13.504Z,74159.31
2023-09-23T04:33:40.961Z,74177.94
2023-09-23T04:36:11.904Z,74155.19
2023-09-23T04:38:38.629Z,74153.13
2023-09-23T04:41:06.759Z,74161.38
2023-09-23T04:43:33.588Z,74167.59
2023-09-23T04:46:00.301Z,74165.53
2023-09-23T04:48:27.656Z,74167.59
2023-09-23T04:50:57.464Z,74171.72
2023-09-23T04:53:24.457Z,74186.19
2023-09-23T04:55:51.701Z,74180.00
2023-09-23T04:58:18.462Z,74180.00
2023-09-23T05:00:45.170Z,74198.59
2023-09-23T05:03:12.530Z,74190.31
2023-09-23T05:05:39.559Z,74192.41
2023-09-23T05:08:11.146Z,74213.06
2023-09-23T05:10:40.785Z,74223.41
2023-09-23T05:13:09.357Z,74221.31
2023-09-23T05:15:35.996Z,74254.41
2023-09-23T05:18:02.853Z,74225.47
2023-09-23T05:20:30.171Z,74217.19
2023-09-23T05:22:57.081Z,74221.31
2023-09-23T05:25:25.921Z,74242.00
2023-09-23T05:27:56.789Z,74235.78
2023-09-23T05:30:23.755Z,74223.41
2023-09-23T05:32:50.565Z,74223.41
2023-09-23T05:35:17.426Z,74227.53
2023-09-23T05:37:45.329Z,74225.47
2023-09-23T05:40:24.930Z,74237.88
2023-09-23T05:42:52.449Z,74229.59
2023-09-23T05:45:19.931Z,74239.94
2023-09-23T05:47:46.878Z,74262.66
2023-09-23T05:50:17.451Z,74273.00
2023-09-23T05:52:47.020Z,74275.06
2023-09-23T05:55:14.969Z,74285.41
2023-09-23T05:57:42.214Z,74295.75
2023-09-23T06:00:11.790Z,74293.66
2023-09-23T06:02:42.378Z,74285.41
2023-09-23T06:05:09.632Z,74270.94
2023-09-23T06:07:36.279Z,74270.94
2023-09-23T06:10:05.048Z,74283.34
2023-09-23T06:12:33.567Z,74285.41
2023-09-23T06:15:01.301Z,74291.59
2023-09-23T06:17:29.679Z,74304.00
2023-09-23T06:20:01.025Z,74312.28
2023-09-23T06:22:28.896Z,74299.88
2023-09-23T06:24:56.568Z,74299.88
2023-09-23T06:27:23.300Z,74306.06
2023-09-23T06:29:49.926Z,74314.34
2023-09-23T06:32:16.534Z,74328.81
2023-09-23T06:34:43.208Z,74328.81
2023-09-23T06:37:09.897Z,74324.69
2023-09-23T06:39:36.511Z,74335.00
2023-09-23T06:42:03.319Z,74337.06
2023-09-23T06:44:30.048Z,74330.88
2023-09-23T06:46:56.792Z,74332.94
2023-09-23T06:49:23.687Z,74328.81
2023-09-23T06:51:50.385Z,74328.81
2023-09-23T06:54:17.118Z,74347.41
2023-09-23T06:56:43.845Z,74337.06
2023-09-23T06:59:10.540Z,74332.94
2023-09-23T07:01:37.913Z,74332.94
2023-09-23T07:04:05.950Z,74337.06
2023-09-23T07:06:32.789Z,74330.88
2023-09-23T07:08:59.441Z,74332.94
2023-09-23T07:11:26.273Z,74335.00
2023-09-23T07:13:53.321Z,74312.28
2023-09-23T07:16:20.153Z,74308.13
2023-09-23T07:18:46.915Z,74308.13
2023-09-23T07:21:13.709Z,74301.94
2023-09-23T07:23:40.510Z,74299.88
2023-09-23T07:26:07.447Z,74299.88
2023-09-23T07:28:34.420Z,74304.00
2023-09-23T07:31:01.707Z,74301.94
2023-09-23T07:33:28.582Z,74304.00
2023-09-23T07:35:55.221Z,74310.22
2023-09-23T07:38:22.401Z,74332.94
2023-09-23T07:40:50.090Z,74332.94
2023-09-23T07:43:16.798Z,74341.22
2023-09-23T07:45:43.493Z,74345.34
2023-09-23T07:48:10.456Z,74349.47
2023-09-23T07:50:37.328Z,74349.47
2023-09-23T07:53:04.256Z,74349.47
2023-09-23T07:55:31.547Z,74355.69
2023-09-23T07:57:58.275Z,74353.63
2023-09-23T08:00:28.063Z,74357.75
2023-09-23T08:02:55.549Z,74372.22
2023-09-23T08:05:25.838Z,74357.75
2023-09-23T08:07:52.935Z,74353.63
2023-09-23T08:10:19.845Z,74349.47
2023-09-23T08:12:46.548Z,74345.34
2023-09-23T08:15:13.719Z,74341.22
2023-09-23T08:17:40.981Z,74349.47
2023-09-23T08:20:30.875Z,74357.75
2023-09-23T08:22:59.424Z,74366.00
2023-09-23T08:25:26.540Z,74370.16
2023-09-23T08:27:55.010Z,74374.28
2023-09-23T08:30:22.574Z,74384.63
2023-09-23T08:32:49.672Z,74384.63
2023-09-23T08:35:16.712Z,74394.94
2023-09-23T08:37:47.161Z,74388.75
2023-09-23T08:40:14.566Z,74388.75
2023-09-23T08:42:41.184Z,74394.94
2023-09-23T08:45:11.983Z,74399.09
2023-09-23T08:47:39.457Z,74399.09
2023-09-23T08:50:10.175Z,74405.28
2023-09-23T08:52:37.254Z,74403.22
2023-09-23T08:55:08.782Z,74407.34
2023-09-23T08:57:35.563Z,74405.28
2023-09-23T09:00:03.216Z,74405.28
2023-09-23T09:02:30.635Z,74425.97
2023-09-23T09:04:58.723Z,74415.63
2023-09-23T09:07:39.444Z,74409.41
2023-09-23T09:10:07.192Z,74407.34
2023-09-23T09:12:35.557Z,74411.50
2023-09-23T09:15:02.221Z,74394.94
2023-09-23T09:17:28.943Z,74386.69
2023-09-23T09:19:55.724Z,74378.41
2023-09-23T09:22:22.524Z,74374.28
2023-09-23T09:24:49.239Z,74376.34
2023-09-23T09:27:17.143Z,74361.88
2023-09-23T09:29:44.880Z,74351.53
2023-09-23T09:32:12.306Z,74349.47
2023-09-23T09:34:48.587Z,74355.69
2023-09-23T09:37:16.218Z,74355.69
2023-09-23T09:39:52.889Z,74345.34
2023-09-23T09:42:31.903Z,74345.34
2023-09-23T09:44:59.120Z,74345.34
2023-09-23T09:47:28.547Z,74347.41
2023-09-23T09:49:56.155Z,74349.47
2023-09-23T09:52:24.488Z,74347.41
2023-09-23T09:54:56.971Z,74355.69
2023-09-23T09:57:25.020Z,74353.63
2023-09-23T09:59:52.913Z,74347.41
2023-09-23T10:02:20.122Z,74330.88
2023-09-23T10:04:48.906Z,74328.81
2023-09-23T10:07:15.663Z,74312.28
2023-09-23T10:09:55.097Z,74312.28
2023-09-23T10:12:26.397Z,74312.28
2023-09-23T10:14:54.951Z,74306.06
2023-09-23T10:17:36.577Z,74301.94
2023-09-23T10:20:09.845Z,74297.81
2023-09-23T10:22:36.590Z,74295.75
2023-09-23T10:25:08.080Z,74316.41
2023-09-23T10:27:37.961Z,74314.34
2023-09-23T10:30:05.772Z,74310.22
2023-09-23T10:32:32.784Z,74314.34
2023-09-23T10:35:00.260Z,74316.41
2023-09-23T10:37:27.814Z,74324.69
2023-09-23T10:39:54.474Z,74328.81
2023-09-23T10:42:21.138Z,74332.94
2023-09-23T10:44:49.123Z,74343.28
2023-09-23T10:47:15.848Z,74349.47
2023-09-23T10:49:42.545Z,74349.47
2023-09-23T10:52:09.303Z,74357.75
2023-09-23T10:54:37.770Z,74361.88
2023-09-23T10:57:04.426Z,74378.41
2023-09-23T10:59:31.731Z,74376.34
2023-09-23T11:01:58.714Z,74386.69
2023-09-23T11:04:25.502Z,74390.81
2023-09-23T11:06:52.720Z,74378.41
2023-09-23T11:09:22.348Z,74386.69
2023-09-23T11:11:49.090Z,74386.69
2023-09-23T11:14:15.846Z,74380.47
2023-09-23T11:16:47.270Z,74366.00
2023-09-23T11:19:13.979Z,74378.41
2023-09-23T11:21:47.872Z,74368.09
2023-09-23T11:24:14.791Z,74353.63
2023-09-23T11:26:42.246Z,74345.34
2023-09-23T11:29:09.515Z,74345.34
2023-09-23T11:31:36.249Z,74353.63
2023-09-23T11:34:03.327Z,74355.69
2023-09-23T11:36:30.006Z,74353.63
2023-09-23T11:38:56.622Z,74351.53
2023-09-23T11:41:23.331Z,74357.75
2023-09-23T11:43:51.547Z,74361.88
2023-09-23T11:46:23.525Z,74376.34
2023-09-23T11:48:50.385Z,74370.16
2023-09-23T11:51:20.133Z,74368.09
2023-09-23T11:53:47.027Z,74361.88
2023-09-23T11:56:13.902Z,74359.81
2023-09-23T11:58:44.696Z,74361.88
2023-09-23T12:01:18.872Z,74366.00
2023-09-23T12:03:45.692Z,74366.00
2023-09-23T12:06:12.635Z,74359.81
2023-09-23T12:08:39.458Z,74366.00
2023-09-23T12:11:06.274Z,74368.09
2023-09-23T12:13:33.656Z,74382.56
2023-09-23T12:16:00.317Z,74403.22
2023-09-23T12:18:27.321Z,74392.88
2023-09-23T12:20:54.850Z,74390.81
2023-09-23T12:23:21.894Z,74392.88
2023-09-23T12:25:48.557Z,74399.09
2023-09-23T12:28:15.232Z,74405.28
2023-09-23T12:30:42.013Z,74440.44
2023-09-23T12:33:10.079Z,74432.16
2023-09-23T12:35:37.908Z,74434.22
2023-09-23T12:38:04.859Z,74430.09
2023-09-23T12:40:33.314Z,74440.44
2023-09-23T12:43:00.027Z,74444.56
2023-09-23T12:45:26.821Z,74446.63
2023-09-23T12:47:58.027Z,74444.56
2023-09-23T12:50:26.612Z,74452.84
2023-09-23T12:52:54.683Z,74456.97
2023-09-23T12:55:21.457Z,74452.84
2023-09-23T12:57:49.616Z,74436.28
2023-09-23T13:00:16.869Z,74454.91
2023-09-23T13:02:43.813Z,74456.97
2023-09-23T13:05:12.015Z,74459.03
2023-09-23T13:07:39.033Z,74454.91
2023-09-23T13:10:06.125Z,74456.97
2023-09-23T13:12:32.960Z,74465.22
2023-09-23T13:14:59.544Z,74461.09
2023-09-23T13:17:27.082Z,74467.31
2023-09-23T13:19:54.010Z,74477.63
2023-09-23T13:22:20.693Z,74490.03
2023-09-23T13:24:47.417Z,74490.03
2023-09-23T13:27:14.047Z,74494.16
2023-09-23T13:29:40.822Z,74487.97
2023-09-23T13:32:07.535Z,74496.25
2023-09-23T13:34:34.213Z,74485.91
2023-09-23T13:37:00.877Z,74494.16
2023-09-23T13:39:27.539Z,74492.09
2023-09-23T13:41:55.165Z,74506.56
2023-09-23T13:44:25.486Z,74483.84
2023-09-23T13:46:53.284Z,74483.84
2023-09-23T13:49:20.171Z,74481.78
2023-09-23T13:51:46.972Z,74477.63
2023-09-23T13:54:13.656Z,74477.63
2023-09-23T13:56:40.614Z,74475.56
2023-09-23T13:59:07.390Z,74481.78
2023-09-23T14:01:34.281Z,74477.63
2023-09-23T14:04:01.157Z,74475.56
2023-09-23T14:06:27.883Z,74502.44
2023-09-23T14:08:54.700Z,74494.16
2023-09-23T14:11:21.504Z,74494.16
2023-09-23T14:13:48.574Z,74506.56
2023-09-23T14:16:15.330Z,74506.56
2023-09-23T14:18:42.055Z,74510.72
2023-09-23T14:21:08.809Z,74508.63
2023-09-23T14:23:36.094Z,74504.50
2023-09-23T14:26:03.215Z,74494.16
2023-09-23T14:28:29.970Z,74500.38
2023-09-23T14:30:57.810Z,74494.16
2023-09-23T14:33:24.742Z,74506.56
2023-09-23T14:35:51.459Z,74504.50
2023-09-23T14:38:18.161Z,74510.72
2023-09-23T14:40:44.933Z,74514.84
2023-09-23T14:43:11.829Z,74514.84
2023-09-23T14:45:38.713Z,74516.91
2023-09-23T14:48:05.779Z,74510.72
2023-09-23T14:50:32.961Z,74510.72
2023-09-23T14:52:59.688Z,74531.38
2023-09-23T14:55:26.467Z,74539.66
2023-09-23T14:57:55.406Z,74537.56
2023-09-23T15:00:23.140Z,74545.84
2023-09-23T15:02:50.051Z,74549.97
2023-09-23T15:05:17.292Z,74552.03
2023-09-23T15:07:44.099Z,74558.25
2023-09-23T15:10:12.257Z,74568.59
2023-09-23T15:12:39.064Z,74572.72
2023-09-23T15:15:06.298Z,74560.31
2023-09-23T15:17:33.164Z,74556.19
2023-09-23T15:19:59.913Z,74556.19
2023-09-23T15:22:26.587Z,74547.91
2023-09-23T15:24:53.326Z,74568.59
2023-09-23T15:27:20.001Z,74570.66
2023-09-23T15:29:48.980Z,74570.66
2023-09-23T15:32:15.788Z,74568.59
2023-09-23T15:34:43.059Z,74566.53
2023-09-23T15:37:09.732Z,74601.66
2023-09-23T15:39:37.005Z,74595.47
2023-09-23T15:42:04.402Z,74597.53
2023-09-23T15:44:31.197Z,74593.38
2023-09-23T15:46:58.805Z,74597.53
2023-09-23T15:49:28.122Z,74581.00
2023-09-23T15:51:54.949Z,74587.19
2023-09-23T15:54:21.622Z,74589.25
2023-09-23T15:56:49.279Z,74614.06
2023-09-23T15:59:16.158Z,74636.81
2023-09-23T16:01:42.848Z,74640.94
2023-09-23T16:04:10.040Z,74622.34
2023-09-23T16:06:37.003Z,74632.66
2023-09-23T16:09:05.216Z,74630.59
2023-09-23T16:11:31.956Z,74645.06
2023-09-23T16:13:58.751Z,74622.34
2023-09-23T16:16:25.536Z,74624.41
2023-09-23T16:18:52.400Z,74626.47
2023-09-23T16:21:19.171Z,74638.88
2023-09-23T16:23:47.156Z,74630.59
2023-09-23T16:26:13.961Z,74626.47
2023-09-23T16:28:41.083Z,74628.53
2023-09-23T16:31:07.864Z,74630.59
2023-09-23T16:33:34.595Z,74643.00
2023-09-23T16:36:01.367Z,74649.19
2023-09-23T16:38:28.100Z,74665.75
2023-09-23T16:40:54.782Z,74659.53
2023-09-23T16:43:21.478Z,74663.66
2023-09-23T16:45:50.925Z,74680.22
2023-09-23T16:48:18.094Z,74667.81
2023-09-23T16:50:44.863Z,74671.94
2023-09-23T16:53:12.113Z,74669.88
2023-09-23T16:55:38.835Z,74676.06
2023-09-23T16:58:05.510Z,74684.34
2023-09-23T17:00:32.640Z,74700.88
2023-09-23T17:03:00.094Z,74705.00
2023-09-23T17:05:26.976Z,74707.09
2023-09-23T17:07:53.753Z,74696.75
2023-09-23T17:10:20.459Z,74702.94
2023-09-23T17:12:47.149Z,74692.63
2023-09-23T17:15:13.844Z,74709.16
2023-09-23T17:17:40.796Z,74717.41
2023-09-23T17:20:08.339Z,74725.69
2023-09-23T17:22:35.042Z,74721.56
2023-09-23T17:25:01.839Z,74725.69
2023-09-23T17:27:28.582Z,74746.34
2023-09-23T17:29:55.368Z,74725.69
2023-09-23T17:32:22.004Z,74729.81
2023-09-23T17:34:48.670Z,74744.28
2023-09-23T17:37:15.394Z,74758.75
2023-09-23T17:39:42.129Z,74771.16
2023-09-23T17:42:08.898Z,74779.44
2023-09-23T17:44:37.989Z,74779.44
2023-09-23T17:47:05.482Z,74783.56
2023-09-23T17:49:32.184Z,74783.56
2023-09-23T17:51:58.809Z,74781.50
2023-09-23T17:54:25.502Z,74783.56
2023-09-23T17:56:52.382Z,74787.69
2023-09-23T17:59:19.037Z,74793.91
2023-09-23T18:01:45.853Z,74802.16
2023-09-23T18:04:12.691Z,74804.25
2023-09-23T18:06:39.577Z,74808.38
2023-09-23T18:09:06.281Z,74802.16
2023-09-23T18:11:33.042Z,74800.09
2023-09-23T18:13:59.741Z,74800.09
2023-09-23T18:16:26.454Z,74798.03
2023-09-23T18:18:53.114Z,74800.09
2023-09-23T18:21:20.357Z,74798.03
2023-09-23T18:23:47.759Z,74795.97
2023-09-23T18:26:15.311Z,74793.91
2023-09-23T18:28:42.444Z,74800.09
2023-09-23T18:31:09.145Z,74812.50
2023-09-23T18:33:36.039Z,74804.25
2023-09-23T18:36:02.876Z,74837.31
2023-09-23T18:38:29.767Z,74816.66
2023-09-23T18:40:56.827Z,74816.66
2023-09-23T18:43:23.633Z,74829.03
2023-09-23T18:45:50.680Z,74824.91
2023-09-23T18:48:25.928Z,74839.38
2023-09-23T18:50:53.858Z,74841.44
2023-09-23T18:53:22.179Z,74841.44
2023-09-23T18:55:49.139Z,74874.53
2023-09-23T18:58:15.925Z,74868.31
2023-09-23T19:00:44.240Z,74866.25
2023-09-23T19:03:11.161Z,74870.38
2023-09-23T19:05:39.782Z,74878.66
2023-09-23T19:08:07.330Z,74895.19
2023-09-23T19:10:34.207Z,74880.72
2023-09-23T19:13:01.578Z,74880.72
2023-09-23T19:15:28.298Z,74880.72
2023-09-23T19:17:55.314Z,74876.59
2023-09-23T19:20:22.069Z,74870.38
2023-09-23T19:22:48.930Z,74866.25
2023-09-23T19:25:16.048Z,74866.25
2023-09-23T19:27:44.167Z,74866.25
2023-09-23T19:30:14.294Z,74853.84
2023-09-23T19:32:41.577Z,74855.91
2023-09-23T19:35:09.231Z,74858.00
2023-09-23T19:37:37.410Z,74853.84
2023-09-23T19:40:06.341Z,74853.84
2023-09-23T19:42:34.014Z,74851.78
2023-09-23T19:45:03.882Z,74855.91
2023-09-23T19:47:32.347Z,74849.72
2023-09-23T19:50:01.121Z,74849.72
2023-09-23T19:52:35.346Z,74849.72
2023-09-23T19:55:02.414Z,74851.78
2023-09-23T19:57:29.151Z,74837.31
2023-09-23T19:59:56.727Z,74849.72
2023-09-23T20:02:24.773Z,74849.72
2023-09-23T20:04:51.674Z,74864.19
2023-09-23T20:07:18.442Z,74862.13
2023-09-23T20:09:45.161Z,74874.53
2023-09-23T20:12:12.316Z,74882.78
2023-09-23T20:14:39.169Z,74880.72
2023-09-23T20:17:08.037Z,74878.66
2023-09-23T20:19:34.905Z,74882.78
2023-09-23T20:22:02.152Z,74878.66
2023-09-23T20:24:28.898Z,74878.66
2023-09-23T20:26:55.714Z,74884.88
2023-09-23T20:29:22.943Z,74878.66
2023-09-23T20:31:50.146Z,74874.53
2023-09-23T20:34:18.001Z,74872.47
2023-09-23T20:36:45.742Z,74874.53
2023-09-23T20:39:12.900Z,74870.38
2023-09-23T20:41:39.755Z,74878.66
2023-09-23T20:44:06.690Z,74884.88
2023-09-23T20:46:33.835Z,74889.00
2023-09-23T20:49:01.787Z,74886.94
2023-09-23T20:51:29.702Z,74891.06
2023-09-23T20:53:57.041Z,74895.19
2023-09-23T20:56:24.113Z,74895.19
2023-09-23T20:58:51.086Z,74903.47
2023-09-23T21:01:17.982Z,74917.94
2023-09-23T21:03:45.034Z,74930.34
2023-09-23T21:06:11.881Z,74924.13
2023-09-23T21:08:38.704Z,74911.72
2023-09-23T21:11:05.493Z,74903.47
2023-09-23T21:13:32.246Z,74909.66
2023-09-23T21:16:06.372Z,74928.28
2023-09-23T21:18:33.301Z,74924.13
2023-09-23T21:21:00.165Z,74934.47
2023-09-23T21:23:27.128Z,74928.28
2023-09-23T21:25:54.222Z,74928.28
2023-09-23T21:28:20.890Z,74953.09
2023-09-23T21:30:47.628Z,74944.81
2023-09-23T21:33:14.582Z,74946.88
2023-09-23T21:35:42.377Z,74944.81
2023-09-23T21:38:09.139Z,74951.00
2023-09-23T21:40:40.957Z,74959.28
2023-09-23T21:43:08.928Z,74961.34
2023-09-23T21:45:35.624Z,74971.69
2023-09-23T21:48:02.765Z,74973.75
2023-09-23T21:50:30.082Z,74982.03
2023-09-23T21:52:56.764Z,74988.22
2023-09-23T21:55:23.415Z,74994.44
2023-09-23T21:57:50.059Z,74998.56
2023-09-23T22:00:35.285Z,74994.44
2023-09-23T22:03:02.738Z,74994.44
2023-09-23T22:05:31.472Z,75000.63
2023-09-23T22:08:00.347Z,74998.56
2023-09-23T22:10:28.184Z,75002.69
2023-09-23T22:12:57.430Z,75019.22
2023-09-23T22:15:26.874Z,75025.44
2023-09-23T22:17:54.789Z,75015.09
2023-09-23T22:20:26.041Z,75019.22
2023-09-23T22:22:53.096Z,75010.97
2023-09-23T22:25:21.938Z,75017.16
2023-09-23T22:27:55.322Z,75019.22
2023-09-23T22:30:27.138Z,75015.09
2023-09-23T22:32:55.958Z,75031.63
2023-09-23T22:35:29.146Z,75031.63
2023-09-23T22:38:00.494Z,75035.78
2023-09-23T22:40:27.890Z,75044.03
2023-09-23T22:42:56.300Z,75050.25
2023-09-23T22:45:36.145Z,75056.44
2023-09-23T22:48:06.455Z,75062.66
2023-09-23T22:50:33.506Z,75062.66
2023-09-23T22:53:00.322Z,75066.78
2023-09-23T22:55:27.343Z,75066.78
2023-09-23T22:57:54.151Z,75068.84
2023-09-23T23:00:27.055Z,75079.19
2023-09-23T23:02:56.037Z,75075.06
2023-09-23T23:05:23.335Z,75081.25
2023-09-23T23:07:53.489Z,75081.25
2023-09-23T23:10:20.567Z,75077.13
2023-09-23T23:12:48.656Z,75089.53
2023-09-23T23:15:17.551Z,75087.47
2023-09-23T23:17:46.059Z,75089.53
2023-09-23T23:20:24.406Z,75089.53
2023-09-23T23:22:55.685Z,75097.78
2023-09-23T23:25:25.020Z,75106.06
2023-09-23T23:27:52.004Z,75101.94
2023-09-23T23:30:19.661Z,75101.94
2023-09-23T23:32:49.876Z,75106.06
2023-09-23T23:35:28.372Z,75108.13
2023-09-23T23:37:55.144Z,75114.34
2023-09-23T23:40:22.954Z,75126.75
2023-09-23T23:42:50.777Z,75126.75
2023-09-23T23:45:21.576Z,75126.75
2023-09-23T23:47:53.758Z,75126.75
2023-09-23T23:50:21.793Z,75122.59
2023-09-23T23:52:50.314Z,75130.88
2023-09-23T23:55:17.826Z,75130.88
2023-09-23T23:57:46.154Z,75130.88
